createdAt,value
2018-05-26T00:01:03.480Z,16.47
2018-05-26T00:03:31.111Z,16.48
2018-05-26T00:05:58.708Z,16.35
2018-05-26T00:08:26.305Z,16.42
2018-05-26T00:10:53.949Z,16.42
2018-05-26T00:13:21.566Z,16.35
2018-05-26T00:15:49.160Z,16.22
2018-05-26T00:18:16.787Z,16.14
2018-05-26T00:20:44.392Z,16.01
2018-05-26T00:23:12.004Z,15.98
2018-05-26T00:25:39.660Z,16.01
2018-05-26T00:28:07.265Z,15.92
2018-05-26T00:30:34.921Z,15.97
2018-05-26T00:33:02.562Z,15.94
2018-05-26T00:35:30.165Z,16.09
2018-05-26T00:37:57.767Z,16.15
2018-05-26T00:40:25.421Z,16.26
2018-05-26T00:42:53.023Z,16.11
2018-05-26T00:45:20.612Z,16.09
2018-05-26T00:47:48.244Z,15.95
2018-05-26T00:50:15.888Z,15.77
2018-05-26T00:52:43.478Z,15.61
2018-05-26T00:55:11.256Z,15.61
2018-05-26T00:57:38.843Z,15.87
2018-05-26T01:00:06.453Z,15.90
2018-05-26T01:02:34.091Z,15.87
2018-05-26T01:05:01.704Z,16.00
2018-05-26T01:07:29.297Z,16.00
2018-05-26T01:09:56.935Z,15.92
2018-05-26T01:12:24.547Z,15.81
2018-05-26T01:14:52.151Z,15.90
2018-05-26T01:17:19.780Z,15.91
2018-05-26T01:19:47.372Z,16.00
2018-05-26T01:22:14.965Z,15.94
2018-05-26T01:24:42.614Z,15.99
2018-05-26T01:27:10.214Z,15.91
2018-05-26T01:29:37.800Z,15.87
2018-05-26T01:32:05.459Z,15.93
2018-05-26T01:34:33.047Z,15.77
2018-05-26T01:37:00.642Z,15.53
2018-05-26T01:39:28.267Z,15.38
2018-05-26T01:41:55.867Z,15.61
2018-05-26T01:44:23.480Z,15.50
2018-05-26T01:46:51.111Z,15.42
2018-05-26T01:49:18.700Z,15.47
2018-05-26T01:51:46.297Z,15.54
2018-05-26T01:54:13.937Z,15.60
2018-05-26T01:56:41.581Z,15.59
2018-05-26T01:59:09.175Z,15.56
2018-05-26T02:01:36.817Z,15.59
2018-05-26T02:04:04.417Z,15.58
2018-05-26T02:06:32.013Z,15.61
2018-05-26T02:08:59.648Z,15.52
2018-05-26T02:11:27.246Z,15.54
2018-05-26T02:13:54.832Z,15.65
2018-05-26T02:16:22.474Z,15.59
2018-05-26T02:18:50.063Z,15.45
2018-05-26T02:21:17.648Z,15.48
2018-05-26T02:23:45.274Z,15.31
2018-05-26T02:26:12.869Z,15.41
2018-05-26T02:28:40.456Z,15.38
2018-05-26T02:31:08.093Z,15.44
2018-05-26T02:33:35.698Z,15.19
2018-05-26T02:36:03.339Z,15.06
2018-05-26T02:38:30.980Z,14.85
2018-05-26T02:40:58.570Z,14.92
2018-05-26T02:43:26.159Z,14.90
2018-05-26T02:45:53.800Z,15.03
2018-05-26T02:48:21.410Z,14.90
2018-05-26T02:50:49.024Z,14.76
2018-05-26T02:53:16.666Z,14.78
2018-05-26T02:55:44.293Z,14.69
2018-05-26T02:58:11.894Z,14.73
2018-05-26T03:00:39.552Z,14.80
2018-05-26T03:03:07.144Z,14.83
2018-05-26T03:05:40.217Z,14.95
2018-05-26T03:08:13.202Z,14.80
2018-05-26T03:10:46.522Z,14.86
2018-05-26T03:13:19.655Z,14.89
2018-05-26T03:15:48.805Z,15.08
2018-05-26T03:18:16.413Z,15.15
2018-05-26T03:20:44.005Z,15.18
2018-05-26T03:23:11.627Z,15.09
2018-05-26T03:25:39.251Z,15.26
2018-05-26T03:28:06.855Z,15.42
2018-05-26T03:30:34.499Z,15.58
2018-05-26T03:33:02.110Z,15.76
2018-05-26T03:35:29.697Z,15.97
2018-05-26T03:37:57.313Z,16.39
2018-05-26T03:40:24.920Z,16.60
2018-05-26T03:42:52.512Z,16.66
2018-05-26T03:45:20.136Z,16.56
2018-05-26T03:47:47.780Z,16.55
2018-05-26T03:50:15.370Z,16.41
2018-05-26T03:52:42.985Z,16.29
2018-05-26T03:58:23.922Z,16.42
2018-05-26T04:00:51.512Z,16.94
2018-05-26T04:03:19.120Z,18.09
2018-05-26T04:05:46.753Z,20.16
2018-05-26T04:08:14.356Z,21.64
2018-05-26T04:10:41.952Z,22.34
2018-05-26T04:13:09.586Z,21.50
2018-05-26T04:15:37.168Z,20.58
2018-05-26T04:18:04.800Z,20.58
2018-05-26T04:20:32.425Z,21.07
2018-05-26T04:23:00.002Z,21.97
2018-05-26T04:25:27.578Z,23.22
2018-05-26T04:27:55.202Z,24.42
2018-05-26T04:30:22.778Z,25.26
2018-05-26T04:32:50.379Z,26.13
2018-05-26T04:35:18.024Z,27.32
2018-05-26T04:37:45.636Z,27.50
2018-05-26T04:40:13.230Z,27.39
2018-05-26T04:42:40.872Z,27.40
2018-05-26T04:45:08.469Z,26.14
2018-05-26T04:47:36.072Z,24.37
2018-05-26T04:50:03.708Z,22.62
2018-05-26T04:52:31.305Z,21.87
2018-05-26T04:54:58.900Z,21.49
2018-05-26T04:57:26.514Z,21.67
2018-05-26T04:59:54.111Z,21.05
2018-05-26T05:02:21.720Z,20.74
2018-05-26T05:04:49.337Z,20.20
2018-05-26T05:07:16.927Z,20.27
2018-05-26T05:09:44.511Z,20.28
2018-05-26T05:12:12.142Z,20.13
2018-05-26T05:14:39.737Z,20.20
2018-05-26T05:17:07.332Z,19.95
2018-05-26T05:19:34.989Z,19.92
2018-05-26T05:22:02.589Z,19.82
2018-05-26T05:24:30.179Z,19.75
2018-05-26T05:26:57.808Z,19.78
2018-05-26T05:29:25.397Z,19.74
2018-05-26T05:31:52.989Z,20.09
2018-05-26T05:34:20.695Z,22.37
2018-05-26T05:36:48.297Z,24.93
2018-05-26T05:39:15.897Z,25.96
2018-05-26T05:41:43.533Z,26.05
2018-05-26T05:44:11.133Z,27.46
2018-05-26T05:46:38.719Z,26.96
2018-05-26T05:49:06.344Z,25.55
2018-05-26T05:51:33.941Z,24.16
2018-05-26T05:54:01.531Z,23.19
2018-05-26T05:56:29.191Z,22.75
2018-05-26T05:58:56.778Z,22.10
2018-05-26T06:01:24.396Z,21.90
2018-05-26T06:03:52.019Z,22.24
2018-05-26T06:06:19.611Z,23.80
2018-05-26T06:08:47.190Z,26.30
2018-05-26T06:11:14.827Z,27.20
2018-05-26T06:13:42.416Z,27.01
2018-05-26T06:16:09.999Z,25.87
2018-05-26T06:18:37.629Z,25.14
2018-05-26T06:21:05.223Z,24.75
2018-05-26T06:23:39.757Z,24.49
2018-05-26T06:26:07.341Z,24.01
2018-05-26T06:28:34.998Z,23.89
2018-05-26T06:31:02.627Z,23.90
2018-05-26T06:33:30.224Z,24.10
2018-05-26T06:35:57.879Z,24.39
2018-05-26T06:38:25.497Z,24.90
2018-05-26T06:40:53.352Z,26.57
2018-05-26T06:43:20.957Z,26.70
2018-05-26T06:45:48.583Z,26.55
2018-05-26T06:48:16.199Z,26.53
2018-05-26T06:50:43.805Z,26.40
2018-05-26T06:53:11.459Z,26.62
2018-05-26T06:55:39.039Z,27.61
2018-05-26T06:58:06.648Z,28.92
2018-05-26T07:00:34.255Z,29.54
2018-05-26T07:03:01.840Z,30.80
2018-05-26T07:05:29.434Z,30.43
2018-05-26T07:07:57.051Z,30.45
2018-05-26T07:10:24.635Z,29.95
2018-05-26T07:12:52.231Z,29.55
2018-05-26T07:15:19.864Z,28.06
2018-05-26T07:17:48.379Z,28.42
2018-05-26T07:20:15.968Z,27.83
2018-05-26T07:22:43.591Z,27.86
2018-05-26T07:25:11.185Z,28.06
2018-05-26T07:27:38.831Z,28.14
2018-05-26T07:30:06.456Z,27.80
2018-05-26T07:32:34.043Z,27.34
2018-05-26T07:35:01.635Z,26.93
2018-05-26T07:37:29.295Z,27.34
2018-05-26T07:39:56.876Z,27.44
2018-05-26T07:42:24.461Z,26.75
2018-05-26T07:44:52.083Z,26.81
2018-05-26T07:47:19.661Z,26.79
2018-05-26T07:49:47.231Z,28.62
2018-05-26T07:52:14.860Z,28.97
2018-05-26T07:54:42.456Z,29.27
2018-05-26T07:57:10.041Z,29.64
2018-05-26T07:59:37.630Z,29.37
2018-05-26T08:02:05.204Z,28.59
2018-05-26T08:04:32.788Z,27.73
2018-05-26T08:07:00.415Z,27.32
2018-05-26T08:09:28.005Z,27.73
2018-05-26T08:11:55.576Z,26.80
2018-05-26T08:14:23.175Z,27.50
2018-05-26T08:16:50.742Z,28.72
2018-05-26T08:19:18.312Z,29.47
2018-05-26T08:21:45.917Z,30.31
2018-05-26T08:24:13.503Z,30.37
2018-05-26T08:26:41.089Z,31.40
2018-05-26T08:29:08.680Z,32.26
2018-05-26T08:31:36.260Z,33.49
2018-05-26T08:34:03.852Z,34.42
2018-05-26T08:36:31.473Z,33.96
2018-05-26T08:38:59.079Z,33.26
2018-05-26T08:41:26.718Z,32.98
2018-05-26T08:43:54.403Z,32.10
2018-05-26T08:46:21.991Z,32.29
2018-05-26T08:48:49.579Z,31.12
2018-05-26T08:51:17.200Z,31.55
2018-05-26T08:53:44.792Z,32.04
2018-05-26T08:56:12.374Z,32.32
2018-05-26T08:58:39.992Z,31.71
2018-05-26T09:01:07.566Z,32.66
2018-05-26T09:03:35.143Z,33.65
2018-05-26T09:06:02.738Z,33.29
2018-05-26T09:08:30.466Z,32.53
2018-05-26T09:10:58.041Z,33.38
2018-05-26T09:13:25.651Z,33.30
2018-05-26T09:15:53.228Z,34.05
2018-05-26T09:18:20.810Z,33.81
2018-05-26T09:20:48.419Z,33.30
2018-05-26T09:23:16.040Z,33.66
2018-05-26T09:25:43.605Z,33.94
2018-05-26T09:28:11.367Z,34.25
2018-05-26T09:30:38.981Z,33.55
2018-05-26T09:33:06.568Z,34.14
2018-05-26T09:35:35.090Z,35.44
2018-05-26T09:38:02.700Z,34.91
2018-05-26T09:40:30.296Z,34.65
2018-05-26T09:42:57.896Z,33.69
2018-05-26T09:45:25.488Z,33.46
2018-05-26T09:47:53.115Z,33.71
2018-05-26T09:50:20.714Z,33.71
2018-05-26T09:52:48.289Z,34.11
2018-05-26T09:55:15.859Z,35.36
2018-05-26T09:57:43.468Z,35.97
2018-05-26T10:00:11.036Z,36.10
2018-05-26T10:02:38.613Z,36.46
2018-05-26T10:05:06.266Z,34.39
2018-05-26T10:07:33.871Z,34.10
2018-05-26T10:10:01.447Z,33.06
2018-05-26T10:12:29.063Z,34.34
2018-05-26T10:14:56.677Z,35.59
2018-05-26T10:17:24.266Z,34.83
2018-05-26T10:19:51.952Z,34.55
2018-05-26T10:22:19.543Z,35.31
2018-05-26T10:24:47.136Z,33.77
2018-05-26T10:27:14.751Z,34.11
2018-05-26T10:29:42.329Z,33.25
2018-05-26T10:32:09.913Z,33.81
2018-05-26T10:34:37.533Z,34.12
2018-05-26T10:37:05.125Z,34.19
2018-05-26T10:39:32.722Z,33.32
2018-05-26T10:42:00.354Z,33.33
2018-05-26T10:44:27.926Z,32.99
2018-05-26T10:46:55.518Z,33.33
2018-05-26T10:49:23.155Z,33.47
2018-05-26T10:51:50.762Z,33.43
2018-05-26T10:54:18.334Z,33.56
2018-05-26T10:56:45.983Z,33.88
2018-05-26T10:59:13.578Z,34.66
2018-05-26T11:01:41.194Z,35.28
2018-05-26T11:04:08.840Z,33.61
2018-05-26T11:06:48.228Z,32.02
2018-05-26T11:09:15.867Z,33.15
2018-05-26T11:11:43.436Z,34.35
2018-05-26T11:14:11.007Z,35.07
2018-05-26T11:16:38.660Z,34.77
2018-05-26T11:19:06.255Z,35.01
2018-05-26T11:21:33.837Z,34.00
2018-05-26T11:24:01.644Z,33.41
2018-05-26T11:26:29.086Z,32.66
2018-05-26T11:28:56.661Z,31.86
2018-05-26T11:31:24.399Z,31.65
2018-05-26T11:33:51.969Z,31.93
2018-05-26T11:36:19.729Z,32.31
2018-05-26T11:38:47.342Z,32.78
2018-05-26T11:41:14.919Z,34.04
2018-05-26T11:43:42.527Z,34.75
2018-05-26T11:46:10.152Z,34.53
2018-05-26T11:48:37.727Z,34.61
2018-05-26T11:51:05.316Z,34.41
2018-05-26T11:53:32.924Z,33.47
2018-05-26T11:56:00.509Z,33.12
2018-05-26T11:58:28.076Z,32.90
2018-05-26T12:00:55.697Z,31.75
2018-05-26T12:03:23.277Z,31.14
2018-05-26T12:05:50.859Z,31.54
2018-05-26T12:08:18.532Z,32.59
2018-05-26T12:10:46.132Z,33.00
2018-05-26T12:13:13.740Z,33.38
2018-05-26T12:15:41.396Z,33.50
2018-05-26T12:18:08.977Z,33.71
2018-05-26T12:20:36.538Z,33.27
2018-05-26T12:23:04.150Z,33.00
2018-05-26T12:25:31.739Z,32.84
2018-05-26T12:27:59.321Z,31.78
2018-05-26T12:30:26.943Z,30.29
2018-05-26T12:32:54.515Z,29.01
2018-05-26T12:35:22.087Z,28.96
2018-05-26T12:37:49.709Z,29.46
2018-05-26T12:40:17.321Z,29.65
2018-05-26T12:42:44.889Z,29.65
2018-05-26T12:45:12.510Z,29.39
2018-05-26T12:47:40.097Z,30.21
2018-05-26T12:50:07.791Z,30.79
2018-05-26T12:52:35.493Z,31.24
2018-05-26T12:55:03.065Z,31.30
2018-05-26T12:57:30.639Z,31.25
2018-05-26T12:59:58.236Z,30.87
2018-05-26T13:02:25.818Z,30.27
2018-05-26T13:04:53.400Z,30.62
2018-05-26T13:07:20.995Z,30.23
2018-05-26T13:09:48.570Z,30.67
2018-05-26T13:12:16.140Z,31.01
2018-05-26T13:14:43.738Z,30.41
2018-05-26T13:17:11.321Z,30.68
2018-05-26T13:19:38.883Z,30.76
2018-05-26T13:22:06.496Z,30.69
2018-05-26T13:24:34.064Z,30.87
2018-05-26T13:27:01.630Z,30.64
2018-05-26T13:29:29.234Z,30.86
2018-05-26T13:31:56.792Z,31.04
2018-05-26T13:34:24.496Z,31.24
2018-05-26T13:36:52.088Z,31.15
2018-05-26T13:39:19.674Z,30.54
2018-05-26T13:41:47.236Z,30.17
2018-05-26T13:44:14.896Z,30.36
2018-05-26T13:46:42.560Z,30.84
2018-05-26T13:49:10.133Z,30.18
2018-05-26T13:51:37.909Z,30.57
2018-05-26T13:54:05.528Z,30.54
2018-05-26T13:56:33.134Z,30.21
2018-05-26T13:59:00.751Z,30.25
2018-05-26T14:01:28.325Z,30.51
2018-05-26T14:03:55.895Z,30.57
2018-05-26T14:06:23.639Z,30.36
2018-05-26T14:08:51.205Z,30.44
2018-05-26T14:11:18.773Z,30.46
2018-05-26T14:13:46.382Z,30.69
2018-05-26T14:16:13.967Z,30.75
2018-05-26T14:18:41.530Z,30.58
2018-05-26T14:21:09.139Z,31.05
2018-05-26T14:23:36.711Z,31.10
2018-05-26T14:26:04.288Z,30.77
2018-05-26T14:28:31.902Z,31.01
2018-05-26T14:30:59.479Z,31.00
2018-05-26T14:33:27.047Z,30.68
2018-05-26T14:35:54.661Z,30.79
2018-05-26T14:38:22.242Z,30.77
2018-05-26T14:40:49.836Z,30.85
2018-05-26T14:43:17.431Z,30.03
2018-05-26T14:45:45.005Z,29.36
2018-05-26T14:48:12.690Z,29.20
2018-05-26T14:50:40.288Z,29.21
2018-05-26T14:53:07.881Z,29.34
2018-05-26T14:55:35.668Z,29.46
2018-05-26T14:58:03.301Z,29.35
2018-05-26T15:00:30.868Z,29.35
2018-05-26T15:02:58.419Z,29.28
2018-05-26T15:05:26.019Z,29.04
2018-05-26T15:07:53.604Z,28.84
2018-05-26T15:10:21.172Z,28.68
2018-05-26T15:12:48.952Z,28.72
2018-05-26T15:15:16.466Z,28.70
2018-05-26T15:17:44.213Z,28.80
2018-05-26T15:20:11.879Z,28.95
2018-05-26T15:22:39.640Z,29.03
2018-05-26T15:25:07.234Z,29.03
2018-05-26T15:27:34.869Z,29.10
2018-05-26T15:30:02.423Z,29.14
2018-05-26T15:32:29.981Z,29.10
2018-05-26T15:34:57.632Z,29.14
2018-05-26T15:37:25.192Z,28.76
2018-05-26T15:39:52.759Z,28.32
2018-05-26T15:42:20.434Z,27.98
2018-05-26T15:44:48.001Z,27.36
2018-05-26T15:47:15.575Z,27.03
2018-05-26T15:49:43.397Z,27.01
2018-05-26T15:52:10.982Z,26.82
2018-05-26T15:54:38.740Z,26.80
2018-05-26T15:57:06.354Z,26.75
2018-05-26T15:59:34.055Z,26.64
2018-05-26T16:02:01.637Z,26.57
2018-05-26T16:04:29.377Z,26.49
2018-05-26T16:06:56.955Z,26.54
2018-05-26T16:09:24.514Z,26.69
2018-05-26T16:11:52.106Z,26.78
2018-05-26T16:14:19.676Z,26.78
2018-05-26T16:16:47.251Z,26.86
2018-05-26T16:19:14.880Z,26.84
2018-05-26T16:21:42.450Z,26.83
2018-05-26T16:24:10.099Z,26.89
2018-05-26T16:26:37.700Z,26.70
2018-05-26T16:29:05.272Z,26.80
2018-05-26T16:31:32.839Z,26.79
2018-05-26T16:34:00.445Z,26.59
2018-05-26T16:36:28.017Z,26.48
2018-05-26T16:38:55.574Z,26.30
2018-05-26T16:41:23.396Z,26.28
2018-05-26T16:43:51.048Z,26.21
2018-05-26T16:46:18.710Z,26.10
2018-05-26T16:48:46.312Z,26.00
2018-05-26T16:51:14.046Z,25.83
2018-05-26T16:53:41.615Z,25.77
2018-05-26T16:56:09.227Z,25.73
2018-05-26T16:58:37.081Z,25.62
2018-05-26T17:01:04.700Z,25.68
2018-05-26T17:03:32.368Z,25.65
2018-05-26T17:06:00.196Z,25.48
2018-05-26T17:08:27.887Z,25.41
2018-05-26T17:10:55.556Z,25.33
2018-05-26T17:13:23.143Z,25.17
2018-05-26T17:15:50.772Z,25.10
2018-05-26T17:18:18.392Z,24.97
2018-05-26T17:20:46.187Z,24.87
2018-05-26T17:23:13.780Z,24.87
2018-05-26T17:25:41.524Z,24.82
2018-05-26T17:28:09.185Z,24.79
2018-05-26T17:30:36.830Z,24.74
2018-05-26T17:33:04.437Z,24.60
2018-05-26T17:35:32.013Z,24.40
2018-05-26T17:37:59.572Z,24.44
2018-05-26T17:40:27.188Z,24.19
2018-05-26T17:42:54.763Z,23.95
2018-05-26T17:45:22.337Z,23.68
2018-05-26T17:47:49.949Z,23.33
2018-05-26T17:50:17.537Z,23.20
2018-05-26T17:52:45.174Z,23.13
2018-05-26T17:55:12.770Z,23.18
2018-05-26T17:57:40.358Z,23.17
2018-05-26T18:00:07.951Z,23.20
2018-05-26T18:02:35.558Z,23.18
2018-05-26T18:05:03.122Z,23.10
2018-05-26T18:07:30.689Z,23.03
2018-05-26T18:09:58.293Z,22.88
2018-05-26T18:12:26.078Z,22.68
2018-05-26T18:14:53.734Z,22.57
2018-05-26T18:17:21.385Z,22.41
2018-05-26T18:19:48.973Z,22.31
2018-05-26T18:22:16.597Z,22.30
2018-05-26T18:24:44.156Z,22.27
2018-05-26T18:27:11.758Z,22.30
2018-05-26T18:29:39.376Z,22.32
2018-05-26T18:32:06.962Z,22.24
2018-05-26T18:34:34.542Z,21.97
2018-05-26T18:37:02.170Z,21.82
2018-05-26T18:39:29.739Z,21.66
2018-05-26T18:41:57.493Z,21.45
2018-05-26T18:44:25.094Z,21.15
2018-05-26T18:46:52.671Z,20.75
2018-05-26T18:49:20.266Z,20.70
2018-05-26T18:51:47.883Z,20.80
2018-05-26T18:54:15.655Z,20.83
2018-05-26T18:56:43.240Z,20.91
2018-05-26T18:59:10.852Z,20.96
2018-05-26T19:01:38.615Z,21.07
2018-05-26T19:04:06.199Z,21.19
2018-05-26T19:06:33.890Z,21.24
2018-05-26T19:09:01.492Z,21.26
2018-05-26T19:11:29.075Z,21.27
2018-05-26T19:13:56.798Z,21.27
2018-05-26T19:16:24.415Z,21.26
2018-05-26T19:18:51.994Z,21.26
2018-05-26T19:21:19.621Z,21.27
2018-05-26T19:23:47.218Z,21.29
2018-05-26T19:26:14.808Z,21.22
2018-05-26T19:28:42.420Z,21.23
2018-05-26T19:31:10.004Z,21.22
2018-05-26T19:33:37.656Z,21.18
2018-05-26T19:36:05.285Z,21.12
2018-05-26T19:38:32.851Z,21.06
2018-05-26T19:41:00.425Z,20.99
2018-05-26T19:43:28.039Z,20.99
2018-05-26T19:45:55.634Z,20.90
2018-05-26T19:48:23.211Z,20.83
2018-05-26T19:50:50.833Z,20.80
2018-05-26T19:53:18.425Z,20.76
2018-05-26T19:55:46.026Z,20.66
2018-05-26T19:58:13.656Z,20.53
2018-05-26T20:00:41.226Z,20.39
2018-05-26T20:03:08.823Z,20.24
2018-05-26T20:05:36.430Z,20.18
2018-05-26T20:08:04.006Z,20.10
2018-05-26T20:10:31.793Z,20.05
2018-05-26T20:12:59.398Z,19.98
2018-05-26T20:15:26.984Z,19.94
2018-05-26T20:17:54.580Z,19.88
2018-05-26T20:20:22.213Z,19.77
2018-05-26T20:22:49.788Z,19.64
2018-05-26T20:25:17.382Z,19.67
2018-05-26T20:27:45.007Z,19.69
2018-05-26T20:30:12.581Z,19.67
2018-05-26T20:32:40.162Z,19.75
2018-05-26T20:35:07.766Z,19.81
2018-05-26T20:37:35.339Z,19.74
2018-05-26T20:40:02.920Z,19.61
2018-05-26T20:42:30.536Z,19.61
2018-05-26T20:44:58.365Z,19.64
2018-05-26T20:47:25.939Z,19.68
2018-05-26T20:49:53.541Z,19.65
2018-05-26T20:52:21.128Z,19.59
2018-05-26T20:54:48.708Z,19.62
2018-05-26T20:57:16.310Z,19.65
2018-05-26T20:59:43.978Z,19.64
2018-05-26T21:02:11.541Z,19.58
2018-05-26T21:04:39.141Z,19.55
2018-05-26T21:07:06.728Z,19.49
2018-05-26T21:09:34.318Z,19.46
2018-05-26T21:12:01.947Z,19.40
2018-05-26T21:14:29.527Z,19.38
2018-05-26T21:16:57.087Z,19.31
2018-05-26T21:19:24.808Z,19.27
2018-05-26T21:21:52.372Z,19.27
2018-05-26T21:24:19.945Z,19.29
2018-05-26T21:26:47.562Z,19.31
2018-05-26T21:29:15.141Z,19.28
2018-05-26T21:31:42.730Z,19.23
2018-05-26T21:34:10.352Z,19.10
2018-05-26T21:36:37.934Z,19.02
2018-05-26T21:39:06.419Z,19.00
2018-05-26T21:41:34.061Z,18.95
2018-05-26T21:44:01.644Z,18.95
2018-05-26T21:46:29.320Z,18.95
2018-05-26T21:48:57.041Z,18.94
2018-05-26T21:51:24.652Z,19.00
2018-05-26T21:53:52.244Z,19.05
2018-05-26T21:56:19.906Z,18.99
2018-05-26T21:58:47.488Z,18.97
2018-05-26T22:01:15.055Z,18.90
2018-05-26T22:03:42.692Z,18.82
2018-05-26T22:06:10.337Z,18.77
2018-05-26T22:08:37.885Z,18.76
2018-05-26T22:11:05.487Z,18.77
2018-05-26T22:13:33.055Z,18.71
2018-05-26T22:16:00.627Z,18.76
2018-05-26T22:18:28.318Z,18.75
2018-05-26T22:20:55.938Z,18.76
2018-05-26T22:23:23.500Z,18.83
2018-05-26T22:25:51.104Z,18.83
2018-05-26T22:28:18.674Z,18.84
2018-05-26T22:30:46.242Z,18.84
2018-05-26T22:33:13.841Z,18.83
2018-05-26T22:35:41.406Z,18.74
2018-05-26T22:38:09.052Z,18.68
2018-05-26T22:40:36.662Z,18.70
2018-05-26T22:43:04.244Z,18.65
2018-05-26T22:45:31.836Z,18.55
2018-05-26T22:47:59.456Z,18.53
2018-05-26T22:50:27.040Z,18.50
2018-05-26T22:52:54.632Z,18.44
2018-05-26T22:55:22.255Z,18.40
2018-05-26T22:57:49.871Z,18.32
2018-05-26T23:00:17.592Z,18.31
2018-05-26T23:02:45.231Z,18.27
2018-05-26T23:05:12.823Z,18.32
2018-05-26T23:07:40.403Z,18.34
2018-05-26T23:10:08.010Z,18.40
2018-05-26T23:12:35.600Z,18.39
2018-05-26T23:15:03.179Z,18.49
2018-05-26T23:17:30.785Z,18.47
2018-05-26T23:19:58.377Z,18.43
2018-05-26T23:22:26.094Z,18.45
2018-05-26T23:24:53.711Z,18.43
2018-05-26T23:27:21.305Z,18.38
2018-05-26T23:29:48.880Z,18.43
2018-05-26T23:32:16.492Z,18.44
2018-05-26T23:34:44.077Z,18.54
2018-05-26T23:37:11.659Z,18.58
2018-05-26T23:39:39.871Z,18.61
2018-05-26T23:42:08.450Z,18.57
2018-05-26T23:44:37.104Z,18.57
2018-05-26T23:47:04.753Z,18.55
2018-05-26T23:49:32.342Z,18.50
2018-05-26T23:52:00.001Z,18.52
2018-05-26T23:54:27.638Z,18.45
2018-05-26T23:56:55.418Z,18.30
2018-05-26T23:59:23.016Z,18.27
